Terminal Aerodrome Forecast
Issued by NWS

Home | Current Version | Previous Version | Graphics & Text | Print | Product List | Glossary On
Versions: 1 2 3 4 5 6 7 8 9 10 11 12 13 14 15 16 17 18 19 20 21 22 23 24 25 26 27 28 29 30 31 32 33
000
FTUS43 KLOT 311511 AAA
TAFORD
TAF AMD
KORD 311511Z 3115/0118 09009KT P6SM SCT060 BKN120
      TEMPO 3119/3121 4SM TSRA SCT040CB BKN080
     FM312100 06010KT P6SM SCT050 BKN100
      TEMPO 3121/3123 4SM TSRA SCT040CB BKN080
     FM312300 14007KT P6SM SCT050 BKN080
     FM011600 19010KT P6SM VCSH BKN060 PROB30 0116/0118 3SM TSRA
      SCT030 OVC050CB=

USA.gov is the U.S. government's official web portal to all federal, state and local government web resources and services.